Miami, Florida
Traffic Map
Current Weather Conditions
Miami, Florida
Clear
Clear
82°
Feels Like: 88°
Wind Chill: 82° Ceiling: Unl
Heat Index: 88° Visibility: 10mi
Dew Point: 74° Wind: 10mph
Humidity: 76% Direction: 230° (SW)
Pressure: 29.85in Gusts: 0mph
Raw Report DataKMIA 261253Z 23009KT 10SM CLR 28/23 A2985 RMK AO2 SLP108 T02780233
Traffic Incident Summary
Active as of:
Severity:
Category:
InformationThere was an issue retrieving the traffic information for this location. Please try a different location or try again shortly.
Advertisements
Track Severe Weather on mobile